Grant, Louisiana
Current Conditions -  °F | °C
As of 2:54 AM on Thursday 18 Dec 2014 (Local Time) from KBKB Reporting Station
Overcast Overcast  
Wind Chill: 53°   Ceiling: 2100
Heat Index: 53°   Visibility: 10mi
Dew Point: 43°   Wind: 3mph
Humidity: 69%   Direction: NA
Pressure: 30.11"   Gusts: NA
Location:  30.79°N, 92.95°W
Report Text: KBKB 180854Z AUTO VRB03KT 10SM OVC021 12/06 A3011 RMK AO2 SLP226 T01170061 58011 $
Loading
Personal Weather Stations






























Interactive Weather Map New forecast layout! Learn more

10-Day Weather Forecast

Advertisements
Track Severe Weather on mobile